ADDS METAR Data INFO
IDs: Format: Raw Decoded Include TAF

Data at: 2325 UTC 19 Oct 2017

KBGD 192251Z AUTO 16013G21KT 10SM CLR 24/09 A2999 RMK AO2 SLP125 T02390089
KBGD 192151Z AUTO 17012G20KT 10SM CLR 25/09 A3000 RMK AO2 SLP126 T02500094
KBGD 192051Z AUTO 16010G20KT 10SM CLR 26/09 A3001 RMK AO2 SLP129 T02560089 56021
KBGD 191951Z AUTO 19013KT 10SM CLR 24/08 A3002 RMK AO2 SLP133 T02440083
KBGD 191851Z AUTO 18009KT 10SM CLR 26/07 A3004 RMK AO2 SLP140 T02560072
KBGD 191751Z AUTO 21006KT 10SM CLR 23/09 A3007 RMK AO2 SLP151 T02330089 10233 20111 58008
KBGD 191651Z AUTO 19007KT 10SM CLR 22/08 A3009 RMK AO2 SLP157 T02220083
KBGD 191551Z AUTO 20007KT 10SM CLR 17/08 A3010 RMK AO2 SLP167 T01720078
KBGD 191451Z AUTO 16005KT 10SM CLR 15/07 A3010 RMK AO2 SLP167 T01500072 53013
KBGD 191351Z AUTO 00000KT 10SM CLR 12/07 A3008 RMK AO2 SLP162 T01220067
KBGD 191251Z AUTO 20006KT 10SM CLR 12/06 A3007 RMK AO2 SLP156 T01170061
KBGD 191151Z AUTO 19004KT 10SM CLR 13/06 A3006 RMK AO2 SLP148 T01330056 10178 20122 53000
KBGD 191051Z AUTO 16003KT 10SM CLR 14/06 A3005 RMK AO2 SLP142 T01390056
KBGD 190951Z AUTO 17008KT 10SM CLR 14/06 A3004 RMK AO2 SLP138 T01440061
KBGD 190851Z AUTO 17004KT 10SM CLR 14/06 A3006 RMK AO2 SLP144 T01440061 50001
KBGD 190751Z AUTO 03004KT 10SM CLR 16/06 A3007 RMK AO2 SLP146 T01560061
KBGD 190651Z AUTO 16007KT 10SM CLR 17/06 A3005 RMK AO2 SLP140 T01670061
KBGD 190551Z AUTO 15009KT 10SM CLR 18/06 A3005 RMK AO2 SLP143 T01780061 10250 20178 402890122 50001
KBGD 190451Z AUTO 15008KT 10SM CLR 18/07 A3006 RMK AO2 SLP148 T01780067
KBGD 190351Z AUTO 15009KT 10SM CLR 18/08 A3007 RMK AO2 SLP152 T01830078
KBGD 190251Z AUTO 14013G19KT 10SM CLR 20/08 A3005 RMK AO2 SLP148 T02000078 50010
KBGD 190151Z AUTO 14013G18KT 10SM CLR 21/09 A3005 RMK AO2 SLP151 T02110089
KBGD 190051Z AUTO 13008KT 10SM CLR 23/09 A3004 RMK AO2 SLP146 T02280094
KBGD 182351Z AUTO 15004KT 10SM CLR 25/09 A3002 RMK AO2 SLP135 T02500089 10289 20239 53007
KBGD 182251Z AUTO 25005KT 10SM CLR 28/04 A3000 RMK AO2 SLP125 T02780044
KBGD 182151Z AUTO 19007KT 10SM CLR 28/04 A3000 RMK AO2 SLP125 T02830039
KBGD 182051Z AUTO VRB06KT 10SM CLR 28/06 A3000 RMK AO2 SLP123 T02830061 56016
KBGD 181951Z AUTO 18008KT 10SM CLR 27/04 A3001 RMK AO2 SLP125 T02720044
KBGD 181851Z AUTO 18009KT 10SM CLR 27/05 A3002 RMK AO2 SLP132 T02720050
KBGD 181751Z AUTO 00000KT 10SM CLR 24/06 A3005 RMK AO2 SLP142 T02390061 10244 20122 58002
KBGD 181651Z AUTO 18005KT 10SM CLR 22/08 A3005 RMK AO2 SLP144 T02220083
KBGD 181551Z AUTO 00000KT 10SM CLR 19/08 A3007 RMK AO2 SLP152 T01940083
KBGD 181451Z AUTO 23005KT 10SM CLR 17/08 A3006 RMK AO2 SLP150 T01670083 53008
KBGD 181351Z AUTO 20006KT 10SM CLR 13/07 A3003 RMK AO2 SLP147 T01330072
KBGD 181251Z AUTO 20006KT 10SM CLR 13/07 A3003 RMK AO2 SLP139 T01280067
KBGD 181151Z AUTO 20007KT 10SM CLR 13/07 A3003 RMK AO2 SLP137 T01330067 10167 20128 55004